Time;durP1;ratioP1;P1;durP2;ratioP2;P2;SDS_P1;SDS_P2;PMS_P1;PMS_P2;Temp;Humidity;BMP_temperature;BMP_pressure;BME280_temperature;BME280_humidity;BME280_pressure;Samples;Min_cycle;Max_cycle;Signal;HPM_P1;HPM_P2
2020/12/29 00:01:39;;;;;;;7.30;3.95;;;5.20;99.90;;;;;;5081972;28;20831;-50
2020/12/29 00:04:07;;;;;;;6.30;3.72;;;3.40;99.90;;;;;;5079876;28;20413;-50
2020/12/29 00:06:34;;;;;;;7.10;3.30;;;3.40;99.90;;;;;;5075586;28;20383;-50
2020/12/29 00:09:00;;;;;;;5.63;3.00;;;3.50;99.90;;;;;;5086658;28;20382;-50
2020/12/29 00:11:25;;;;;;;4.80;2.90;;;5.10;99.90;;;;;;5092106;28;20378;-50
2020/12/29 00:13:52;;;;;;;4.40;2.47;;;4.20;99.90;;;;;;5078805;28;20754;-54
2020/12/29 00:16:17;;;;;;;4.53;2.28;;;3.90;99.90;;;;;;5085047;28;20399;-50
2020/12/29 00:18:43;;;;;;;3.70;2.00;;;3.60;99.90;;;;;;5082415;28;20446;-50
2020/12/29 00:21:19;;;;;;;4.60;2.20;;;3.60;99.90;;;;;;5081942;28;20837;-50
2020/12/29 00:23:45;;;;;;;4.07;2.00;;;3.60;99.90;;;;;;5101532;28;20416;-50
2020/12/29 00:26:11;;;;;;;4.10;2.03;;;5.70;99.90;;;;;;5103305;28;20956;-50
2020/12/29 00:28:37;;;;;;;3.80;1.90;;;3.60;99.90;;;;;;5094953;28;20380;-51
2020/12/29 00:31:02;;;;;;;3.72;1.75;;;3.60;99.90;;;;;;5112878;28;20374;-51
2020/12/29 00:33:28;;;;;;;3.40;1.80;;;3.90;99.90;;;;;;5085100;27;20491;-50
2020/12/29 00:35:54;;;;;;;3.80;1.87;;;3.60;99.90;;;;;;5088272;28;20913;-56
2020/12/29 00:38:19;;;;;;;4.30;2.08;;;3.60;99.90;;;;;;5087717;28;20441;-51
2020/12/29 00:40:45;;;;;;;3.40;1.70;;;3.60;99.90;;;;;;5081334;28;20381;-50
2020/12/29 00:43:10;;;;;;;3.30;1.90;;;3.80;99.90;;;;;;5092385;28;20447;-50
2020/12/29 00:45:36;;;;;;;2.90;1.52;;;5.10;99.90;;;;;;5089740;28;20440;-50
2020/12/29 00:48:02;;;;;;;4.03;1.80;;;4.50;99.90;;;;;;5078980;28;20795;-50
2020/12/29 00:50:27;;;;;;;3.80;1.50;;;3.50;99.90;;;;;;5084961;28;20781;-50
2020/12/29 00:52:53;;;;;;;4.40;1.70;;;3.60;99.90;;;;;;5076062;28;20491;-50
2020/12/29 00:55:19;;;;;;;2.90;1.50;;;2.50;99.90;;;;;;5071746;28;20761;-52
2020/12/29 00:57:44;;;;;;;2.90;1.50;;;3.50;99.90;;;;;;5078550;28;20441;-50
2020/12/29 01:00:10;;;;;;;3.20;1.45;;;4.50;99.90;;;;;;5086785;28;20453;-50
2020/12/29 01:02:35;;;;;;;2.80;1.40;;;3.50;99.90;;;;;;5092536;28;20371;-50
2020/12/29 01:05:01;;;;;;;3.13;1.42;;;3.50;99.90;;;;;;5080376;28;20865;-50
2020/12/29 01:07:27;;;;;;;3.05;1.50;;;6.00;99.90;;;;;;5085028;28;20396;-50
2020/12/29 01:09:52;;;;;;;3.10;1.60;;;3.60;99.90;;;;;;5078951;28;20877;-51
2020/12/29 01:12:18;;;;;;;2.90;1.40;;;5.60;99.90;;;;;;5091902;28;20377;-50
2020/12/29 01:14:44;;;;;;;2.92;1.50;;;4.40;99.90;;;;;;5087416;28;20396;-50
2020/12/29 01:17:13;;;;;;;3.00;1.70;;;3.70;99.90;;;;;;5080559;28;20878;-50
2020/12/29 01:19:38;;;;;;;3.20;1.55;;;4.60;99.90;;;;;;5090144;28;20494;-50
2020/12/29 01:22:04;;;;;;;2.88;1.58;;;6.10;99.90;;;;;;5076567;28;20471;-50
2020/12/29 01:24:30;;;;;;;3.15;1.67;;;3.70;99.90;;;;;;5090129;28;20426;-50
2020/12/29 01:26:56;;;;;;;4.30;1.80;;;3.70;99.90;;;;;;5076497;28;20875;-56
2020/12/29 01:29:22;;;;;;;3.60;1.60;;;3.60;99.90;;;;;;5091599;28;20465;-50
2020/12/29 01:31:48;;;;;;;3.10;1.42;;;6.60;99.90;;;;;;5092164;28;20469;-50
2020/12/29 01:34:13;;;;;;;3.05;1.48;;;4.00;99.90;;;;;;5090132;28;21177;-50
2020/12/29 01:36:39;;;;;;;3.37;1.60;;;3.70;99.90;;;;;;5091520;28;20734;-50
2020/12/29 01:39:05;;;;;;;3.05;1.40;;;6.70;99.90;;;;;;5091043;28;20376;-50
2020/12/29 01:41:33;;;;;;;2.70;1.10;;;3.60;99.90;;;;;;5092026;28;20374;-50
2020/12/29 01:44:12;;;;;;;3.33;1.42;;;4.40;99.90;;;;;;5090991;28;20398;-54
2020/12/29 01:46:45;;;;;;;3.50;1.20;;;4.70;99.90;;;;;;5090194;28;20779;-51
2020/12/29 01:49:11;;;;;;;3.00;1.50;;;3.60;99.90;;;;;;5090949;28;20387;-50
2020/12/29 01:51:38;;;;;;;3.30;1.80;;;3.60;99.90;;;;;;5091498;28;20384;-50
2020/12/29 01:54:05;;;;;;;2.80;1.50;;;5.00;99.90;;;;;;5090418;28;20393;-50
2020/12/29 01:56:36;;;;;;;3.40;1.80;;;5.00;99.90;;;;;;5090202;28;20485;-50
2020/12/29 01:59:09;;;;;;;2.85;1.50;;;5.30;99.90;;;;;;5090819;28;20393;-50
2020/12/29 02:01:42;;;;;;;3.65;1.73;;;3.60;99.90;;;;;;5091515;28;20378;-50
2020/12/29 02:04:09;;;;;;;3.20;1.70;;;4.00;99.90;;;;;;5090338;28;20887;-50
2020/12/29 02:06:36;;;;;;;3.47;1.60;;;6.10;99.90;;;;;;5091174;28;20859;-50
2020/12/29 02:09:04;;;;;;;3.80;2.00;;;5.50;99.90;;;;;;5090712;28;20399;-50
2020/12/29 02:11:30;;;;;;;3.17;1.80;;;3.80;99.90;;;;;;5091193;28;20382;-50
2020/12/29 02:13:56;;;;;;;4.13;2.00;;;3.80;99.90;;;;;;5090797;28;20376;-57
2020/12/29 02:16:22;;;;;;;3.40;1.73;;;6.00;99.90;;;;;;5090921;28;20394;-50
2020/12/29 02:18:48;;;;;;;3.42;1.80;;;3.90;99.90;;;;;;5091490;28;20386;-50
2020/12/29 02:21:13;;;;;;;3.75;1.80;;;4.90;99.90;;;;;;5090167;28;20377;-50
2020/12/29 02:23:39;;;;;;;3.60;2.00;;;3.90;99.90;;;;;;5090542;28;20517;-50
2020/12/29 02:26:05;;;;;;;3.40;1.93;;;4.00;99.90;;;;;;5090037;28;20866;-50
2020/12/29 02:28:31;;;;;;;3.80;1.90;;;4.80;99.90;;;;;;5090798;28;20374;-50
2020/12/29 02:30:56;;;;;;;3.80;2.10;;;3.80;99.90;;;;;;5090261;28;20965;-56
2020/12/29 02:33:22;;;;;;;3.30;1.90;;;3.80;99.90;;;;;;5089422;28;20386;-50
2020/12/29 02:35:47;;;;;;;3.33;1.70;;;3.80;99.90;;;;;;5090989;28;20430;-51
2020/12/29 02:38:13;;;;;;;4.50;2.07;;;4.10;99.90;;;;;;5090091;28;20390;-51
2020/12/29 02:40:39;;;;;;;3.40;1.90;;;3.90;99.90;;;;;;5090717;28;20411;-51
2020/12/29 02:43:04;;;;;;;5.20;1.75;;;4.00;99.90;;;;;;5089973;28;20406;-52
2020/12/29 02:45:30;;;;;;;3.20;1.70;;;4.30;99.90;;;;;;5090806;28;20831;-52
2020/12/29 02:47:56;;;;;;;4.80;1.90;;;4.00;99.90;;;;;;5090452;28;20501;-60
2020/12/29 02:50:22;;;;;;;3.22;1.90;;;4.10;99.90;;;;;;5090448;28;20378;-53
2020/12/29 02:52:47;;;;;;;3.60;1.85;;;4.10;99.90;;;;;;5090578;28;20470;-52
2020/12/29 02:55:13;;;;;;;3.40;1.80;;;4.10;99.90;;;;;;5088511;28;20404;-52
2020/12/29 02:57:38;;;;;;;3.40;1.90;;;4.00;99.90;;;;;;5090653;28;20394;-53
2020/12/29 03:00:05;;;;;;;3.00;1.80;;;3.90;99.90;;;;;;5089678;28;20379;-52
2020/12/29 03:02:31;;;;;;;2.90;1.70;;;3.80;99.90;;;;;;5089013;28;20384;-52
2020/12/29 03:05:01;;;;;;;3.40;1.90;;;3.80;99.90;;;;;;5090222;28;20378;-59
2020/12/29 03:07:27;;;;;;;3.90;2.00;;;5.00;99.90;;;;;;5090564;28;20444;-52
2020/12/29 03:09:53;;;;;;;3.50;1.85;;;3.90;99.90;;;;;;5090287;28;20465;-54
2020/12/29 03:12:19;;;;;;;3.00;1.90;;;4.80;99.90;;;;;;5089120;28;20887;-56
2020/12/29 03:14:44;;;;;;;2.97;1.98;;;3.80;99.90;;;;;;5090616;28;20799;-53
2020/12/29 03:17:10;;;;;;;4.70;1.80;;;3.80;99.90;;;;;;5089749;28;20382;-50
2020/12/29 03:19:35;;;;;;;2.83;1.40;;;3.80;99.90;;;;;;5090142;28;20884;-50
2020/12/29 03:22:01;;;;;;;3.17;1.60;;;6.70;99.90;;;;;;5089480;28;20377;-50
2020/12/29 03:24:26;;;;;;;2.90;1.50;;;4.40;99.90;;;;;;5089519;28;20909;-51
2020/12/29 03:26:52;;;;;;;2.60;1.40;;;3.70;99.90;;;;;;5089491;28;20378;-50
2020/12/29 03:29:18;;;;;;;3.60;1.33;;;3.70;99.90;;;;;;5078537;28;20391;-50
2020/12/29 03:31:45;;;;;;;2.70;1.30;;;4.20;99.90;;;;;;5084647;28;20378;-50
2020/12/29 03:34:23;;;;;;;2.60;1.40;;;3.70;99.90;;;;;;5088138;28;20413;-50
2020/12/29 03:36:49;;;;;;;2.50;1.20;;;3.90;99.90;;;;;;5077039;28;20431;-50
2020/12/29 03:39:15;;;;;;;3.17;1.40;;;4.50;99.90;;;;;;5084480;28;21014;-52
2020/12/29 03:41:41;;;;;;;2.63;1.40;;;3.70;99.90;;;;;;5075484;28;20547;-50
2020/12/29 03:44:06;;;;;;;2.70;1.20;;;4.20;99.90;;;;;;5086029;28;20419;-52
2020/12/29 03:46:32;;;;;;;2.60;1.00;;;3.90;99.90;;;;;;5079857;28;20396;-52
2020/12/29 03:48:57;;;;;;;2.30;1.13;;;5.00;99.90;;;;;;5093534;28;20409;-57
2020/12/29 03:51:23;;;;;;;2.55;1.20;;;3.80;99.90;;;;;;5086821;28;20453;-50
2020/12/29 03:53:49;;;;;;;2.30;1.20;;;3.80;99.90;;;;;;5084890;28;20405;-50
2020/12/29 03:56:14;;;;;;;2.30;1.20;;;3.80;99.90;;;;;;5085956;28;20540;-50
2020/12/29 03:58:40;;;;;;;3.00;1.30;;;4.70;99.90;;;;;;5084721;28;20379;-50
2020/12/29 04:01:06;;;;;;;2.67;1.10;;;3.70;99.90;;;;;;5078733;28;20389;-50
2020/12/29 04:03:32;;;;;;;2.40;1.00;;;3.70;99.90;;;;;;5086377;28;20398;-53
2020/12/29 04:05:57;;;;;;;2.55;1.10;;;4.00;99.90;;;;;;5087985;28;20744;-59
2020/12/29 04:08:23;;;;;;;3.50;1.13;;;3.80;99.90;;;;;;5082454;28;20724;-52
2020/12/29 04:10:48;;;;;;;4.10;1.20;;;3.70;99.90;;;;;;5093164;28;20770;-52
2020/12/29 04:13:15;;;;;;;2.92;1.23;;;4.30;99.90;;;;;;5085487;28;20401;-52
2020/12/29 04:15:42;;;;;;;2.80;1.50;;;3.70;99.90;;;;;;5084014;28;20480;-51
2020/12/29 04:18:08;;;;;;;2.80;1.35;;;3.80;99.90;;;;;;5092656;28;20378;-53
2020/12/29 04:20:34;;;;;;;2.63;1.20;;;3.70;99.90;;;;;;5085709;28;20945;-51
2020/12/29 04:22:59;;;;;;;3.00;1.40;;;3.80;99.90;;;;;;5083280;28;20475;-59
2020/12/29 04:25:25;;;;;;;2.80;1.40;;;5.30;99.90;;;;;;5087955;28;20402;-52
2020/12/29 04:27:50;;;;;;;3.50;1.47;;;5.00;99.90;;;;;;5082740;28;20370;-51
2020/12/29 04:30:16;;;;;;;4.07;1.20;;;3.70;99.90;;;;;;5087170;28;20439;-52
2020/12/29 04:32:42;;;;;;;4.75;1.20;;;5.20;99.90;;;;;;5081479;28;20378;-51
2020/12/29 04:35:08;;;;;;;5.00;1.35;;;5.40;99.90;;;;;;5082848;28;20792;-52
2020/12/29 04:37:35;;;;;;;4.40;1.50;;;6.40;99.90;;;;;;5072815;28;20394;-52
2020/12/29 04:40:01;;;;;;;2.55;1.10;;;4.40;99.90;;;;;;5073717;28;20477;-52
2020/12/29 04:42:28;;;;;;;2.83;1.20;;;4.90;99.90;;;;;;5083346;28;20457;-52
2020/12/29 04:44:53;;;;;;;3.25;1.20;;;3.60;99.90;;;;;;5092564;28;20385;-52
2020/12/29 04:47:19;;;;;;;3.65;1.60;;;3.70;99.90;;;;;;5086505;28;20391;-52
2020/12/29 04:49:48;;;;;;;3.20;1.35;;;3.60;99.90;;;;;;5100562;28;20426;-52
2020/12/29 04:52:14;;;;;;;2.83;1.30;;;3.70;99.90;;;;;;5100540;28;20425;-50
2020/12/29 04:54:41;;;;;;;2.53;1.40;;;4.20;99.90;;;;;;5099455;28;20435;-50
2020/12/29 04:57:09;;;;;;;2.40;1.40;;;6.80;99.90;;;;;;5082117;28;20923;-50
2020/12/29 04:59:35;;;;;;;3.20;1.60;;;3.80;99.90;;;;;;5079524;28;20391;-50
2020/12/29 05:02:01;;;;;;;2.42;1.30;;;3.80;99.90;;;;;;5084867;28;20451;-57
2020/12/29 05:04:30;;;;;;;2.63;1.50;;;3.80;99.90;;;;;;5083454;28;20415;-51
2020/12/29 05:06:56;;;;;;;3.20;1.40;;;5.20;99.90;;;;;;5092233;28;20382;-50
2020/12/29 05:09:23;;;;;;;3.40;1.40;;;3.90;99.90;;;;;;5077982;28;20396;-51
2020/12/29 05:11:49;;;;;;;3.75;1.50;;;3.90;99.90;;;;;;5090919;28;20431;-50
2020/12/29 05:14:15;;;;;;;3.60;1.40;;;4.00;99.90;;;;;;5090462;28;20386;-50
2020/12/29 05:16:41;;;;;;;3.50;1.27;;;6.80;99.90;;;;;;5077605;28;20384;-50
2020/12/29 05:19:15;;;;;;;2.70;1.10;;;4.00;99.90;;;;;;5089004;28;20389;-50
2020/12/29 05:21:42;;;;;;;3.77;1.40;;;4.00;99.90;;;;;;5077555;28;20425;-51
2020/12/29 05:24:15;;;;;;;2.45;1.23;;;6.00;99.90;;;;;;5079240;28;20775;-50
2020/12/29 05:26:45;;;;;;;2.97;1.38;;;4.10;99.90;;;;;;5084399;28;20413;-52
2020/12/29 05:29:12;;;;;;;3.60;1.30;;;4.20;99.90;;;;;;5077905;28;20375;-51
2020/12/29 05:31:40;;;;;;;3.70;1.30;;;4.00;99.90;;;;;;5084757;28;20608;-51
2020/12/29 05:34:06;;;;;;;4.47;1.93;;;4.00;99.90;;;;;;5082441;28;20387;-52
2020/12/29 05:36:36;;;;;;;3.30;1.40;;;3.90;99.90;;;;;;5092133;28;20571;-52
2020/12/29 05:39:09;;;;;;;2.40;1.10;;;5.30;99.90;;;;;;5081171;28;20396;-53
2020/12/29 05:41:38;;;;;;;3.30;1.30;;;4.00;99.90;;;;;;5086880;28;20823;-51
2020/12/29 05:44:05;;;;;;;5.20;1.50;;;3.90;99.90;;;;;;5081343;28;20883;-52
2020/12/29 05:46:31;;;;;;;3.10;1.23;;;3.90;99.90;;;;;;5084161;28;20867;-51
2020/12/29 05:48:58;;;;;;;2.80;1.10;;;4.00;99.90;;;;;;5086102;28;20404;-53
2020/12/29 05:51:24;;;;;;;2.70;1.30;;;4.60;99.90;;;;;;5079651;28;21027;-52
2020/12/29 05:53:56;;;;;;;2.50;1.23;;;4.10;99.90;;;;;;5091301;28;20420;-52
2020/12/29 05:56:22;;;;;;;3.17;1.25;;;4.10;99.90;;;;;;5084060;28;21185;-56
2020/12/29 05:58:50;;;;;;;2.50;1.20;;;4.00;99.90;;;;;;5080384;28;20528;-52
2020/12/29 06:01:15;;;;;;;3.03;1.30;;;4.00;99.90;;;;;;5076082;28;20908;-52
2020/12/29 06:03:43;;;;;;;2.40;1.00;;;4.40;99.90;;;;;;5079990;28;20407;-52
2020/12/29 06:06:14;;;;;;;2.50;1.10;;;4.60;99.90;;;;;;5071340;28;20406;-51
2020/12/29 06:08:42;;;;;;;2.50;1.20;;;4.00;99.90;;;;;;5078203;28;20378;-51
2020/12/29 06:11:14;;;;;;;3.90;1.40;;;5.80;99.90;;;;;;5092992;28;20466;-52
2020/12/29 06:13:47;;;;;;;5.50;1.40;;;4.00;99.90;;;;;;5096344;28;20528;-52
2020/12/29 06:16:17;;;;;;;2.30;1.10;;;3.90;99.90;;;;;;5096596;28;20384;-52
2020/12/29 06:18:46;;;;;;;2.20;1.10;;;6.70;99.90;;;;;;5103726;28;20401;-52
2020/12/29 06:21:14;;;;;;;2.88;1.40;;;5.60;99.90;;;;;;5087858;28;20402;-52
2020/12/29 06:23:50;;;;;;;2.60;1.40;;;4.00;99.90;;;;;;5085768;28;20489;-52
2020/12/29 06:26:19;;;;;;;2.70;1.40;;;3.90;99.90;;;;;;5094023;28;20463;-52
2020/12/29 06:28:51;;;;;;;2.60;1.15;;;6.90;99.90;;;;;;5080595;28;20427;-52
2020/12/29 06:31:42;;;;;;;2.30;0.98;;;4.30;99.90;;;;;;5100688;28;20381;-54
2020/12/29 06:34:10;;;;;;;2.90;1.25;;;4.90;99.90;;;;;;5086869;28;20467;-53
2020/12/29 06:36:39;;;;;;;2.20;1.10;;;4.00;99.90;;;;;;5107139;28;20400;-53
2020/12/29 06:39:08;;;;;;;2.60;1.40;;;4.00;99.90;;;;;;5092055;28;20474;-52
2020/12/29 06:41:35;;;;;;;2.60;1.30;;;4.00;99.90;;;;;;5094436;28;20835;-53
2020/12/29 06:44:03;;;;;;;3.10;1.30;;;4.00;99.90;;;;;;5110143;28;20405;-58
2020/12/29 06:46:30;;;;;;;2.40;1.23;;;4.20;99.90;;;;;;5076688;28;20418;-52
2020/12/29 06:48:57;;;;;;;2.80;1.20;;;4.10;99.90;;;;;;5084180;28;20864;-52
2020/12/29 06:51:23;;;;;;;2.40;1.40;;;4.10;99.90;;;;;;5076547;28;20430;-52
2020/12/29 06:53:49;;;;;;;2.80;1.50;;;4.20;99.90;;;;;;5089253;28;20405;-53
2020/12/29 06:56:17;;;;;;;2.20;1.10;;;4.00;99.90;;;;;;5079051;28;20394;-54
2020/12/29 06:58:42;;;;;;;2.83;1.70;;;4.40;99.90;;;;;;5095238;28;20437;-52
2020/12/29 07:01:27;;;;;;;2.65;1.58;;;3.90;99.90;;;;;;5096283;28;20414;-52
2020/12/29 07:04:06;;;;;;;2.63;1.30;;;4.00;99.90;;;;;;5102867;28;20505;-52
2020/12/29 07:06:35;;;;;;;2.47;1.30;;;3.90;99.90;;;;;;5101992;28;20402;-52
2020/12/29 07:09:11;;;;;;;2.72;1.27;;;5.30;99.90;;;;;;5103825;28;20467;-52
2020/12/29 07:11:37;;;;;;;3.08;1.40;;;3.80;99.90;;;;;;5096255;28;20772;-52
2020/12/29 07:14:06;;;;;;;2.60;1.30;;;3.80;99.90;;;;;;5081360;28;20860;-57
2020/12/29 07:16:34;;;;;;;2.70;1.40;;;5.30;99.90;;;;;;5089919;28;20378;-55
2020/12/29 07:19:11;;;;;;;2.60;1.30;;;3.80;99.90;;;;;;5096055;28;20820;-58
2020/12/29 07:21:37;;;;;;;2.92;1.52;;;5.90;99.90;;;;;;5105694;28;20416;-53
2020/12/29 07:24:06;;;;;;;2.73;1.40;;;5.10;99.90;;;;;;5100294;28;20420;-58
2020/12/29 07:26:40;;;;;;;2.75;1.48;;;5.60;99.90;;;;;;5097628;28;20397;-55
2020/12/29 07:29:07;;;;;;;2.50;1.30;;;3.70;99.90;;;;;;5103193;28;20384;-55
2020/12/29 07:31:40;;;;;;;3.30;1.20;;;3.70;99.90;;;;;;5097785;28;20400;-51
2020/12/29 07:34:15;;;;;;;4.78;2.40;;;3.60;99.90;;;;;;5103307;28;20419;-52
2020/12/29 07:36:46;;;;;;;4.68;2.30;;;3.50;99.90;;;;;;5093902;28;20435;-52
2020/12/29 07:39:17;;;;;;;2.60;1.10;;;4.70;99.90;;;;;;5102125;28;20395;-52
2020/12/29 07:41:43;;;;;;;2.47;1.00;;;3.40;99.90;;;;;;5096172;28;20399;-51
2020/12/29 07:44:09;;;;;;;2.60;1.20;;;6.30;99.90;;;;;;5107066;28;20468;-51
2020/12/29 07:46:35;;;;;;;2.50;1.20;;;3.40;99.90;;;;;;5101818;28;20459;-52
2020/12/29 07:49:01;;;;;;;3.10;1.40;;;3.40;99.90;;;;;;5100720;28;20388;-58
2020/12/29 07:51:27;;;;;;;2.50;1.20;;;3.80;99.90;;;;;;5094940;28;20396;-51
2020/12/29 07:53:53;;;;;;;2.70;1.38;;;4.30;99.90;;;;;;5108720;28;20412;-52
2020/12/29 07:56:19;;;;;;;2.50;1.20;;;5.20;99.90;;;;;;5109005;28;20441;-52
2020/12/29 07:58:45;;;;;;;4.80;2.78;;;3.30;99.90;;;;;;5087458;28;20490;-51
2020/12/29 08:01:14;;;;;;;3.10;1.50;;;3.40;99.90;;;;;;5078514;28;20479;-52
2020/12/29 08:03:48;;;;;;;2.70;1.40;;;3.30;99.90;;;;;;5079074;28;20518;-53
2020/12/29 08:06:14;;;;;;;3.08;1.45;;;3.80;99.90;;;;;;5076988;28;20404;-52
2020/12/29 08:08:41;;;;;;;2.90;1.40;;;3.10;99.90;;;;;;5079960;28;20404;-52
2020/12/29 08:11:08;;;;;;;2.40;1.20;;;4.50;99.90;;;;;;5073068;28;20391;-53
2020/12/29 08:13:34;;;;;;;3.20;1.30;;;5.00;99.90;;;;;;5077055;28;20397;-54
2020/12/29 08:15:59;;;;;;;3.10;1.57;;;3.10;99.90;;;;;;5077719;28;20885;-57
2020/12/29 08:18:25;;;;;;;2.42;1.20;;;5.60;99.90;;;;;;5079637;28;20370;-52
2020/12/29 08:21:00;;;;;;;2.40;1.10;;;3.90;99.90;;;;;;5077497;28;20382;-52
2020/12/29 08:23:27;;;;;;;3.00;1.60;;;3.10;99.90;;;;;;5077213;28;20429;-52
2020/12/29 08:25:56;;;;;;;3.05;1.30;;;3.20;99.90;;;;;;5080978;28;20389;-54
2020/12/29 08:28:27;;;;;;;3.63;1.40;;;3.20;99.90;;;;;;5077831;28;20473;-52
2020/12/29 08:30:54;;;;;;;3.00;1.20;;;5.20;99.90;;;;;;5079069;28;20460;-52
2020/12/29 08:33:22;;;;;;;2.50;1.30;;;3.30;99.90;;;;;;5088840;28;20875;-52
2020/12/29 08:36:02;;;;;;;2.40;1.10;;;3.30;99.90;;;;;;5079542;28;20877;-52
2020/12/29 08:38:31;;;;;;;3.90;1.27;;;3.20;99.90;;;;;;5083857;28;20387;-53
2020/12/29 08:41:27;;;;;;;2.60;1.47;;;3.20;99.90;;;;;;5080443;28;20914;-52
2020/12/29 08:43:53;;;;;;;3.13;1.58;;;3.20;99.90;;;;;;5082033;28;20441;-52
2020/12/29 08:46:24;;;;;;;2.85;1.38;;;3.20;99.90;;;;;;5091173;28;21255;-52
2020/12/29 08:49:01;;;;;;;2.70;1.40;;;3.40;99.90;;;;;;5084439;28;20401;-54
2020/12/29 08:51:31;;;;;;;3.00;1.50;;;3.60;99.90;;;;;;5084070;28;20419;-52
2020/12/29 08:54:08;;;;;;;2.60;1.52;;;3.70;99.90;;;;;;5082029;28;20424;-52
2020/12/29 08:56:34;;;;;;;2.93;1.50;;;3.70;99.90;;;;;;5084860;28;20463;-53
2020/12/29 08:59:12;;;;;;;2.67;1.00;;;3.80;99.90;;;;;;5085087;28;20394;-58
2020/12/29 09:01:42;;;;;;;2.40;1.10;;;4.00;99.90;;;;;;5085863;28;20408;-53
2020/12/29 09:04:25;;;;;;;2.20;0.82;;;4.10;99.90;;;;;;5080905;28;20456;-52
2020/12/29 09:07:13;;;;;;;3.40;1.40;;;4.00;99.90;;;;;;5082178;28;20404;-53
2020/12/29 09:10:04;;;;;;;2.40;1.00;;;4.10;99.90;;;;;;5087933;28;20556;-55
2020/12/29 09:12:32;;;;;;;3.25;1.17;;;6.10;99.90;;;;;;5081531;28;20466;-52
2020/12/29 09:15:22;;;;;;;2.90;1.20;;;4.10;99.90;;;;;;5088022;28;20527;-52
2020/12/29 09:17:56;;;;;;;2.30;1.00;;;4.20;99.90;;;;;;5072700;28;20462;-53
2020/12/29 09:20:26;;;;;;;2.60;1.10;;;5.80;99.90;;;;;;5086747;28;20370;-53
2020/12/29 09:23:01;;;;;;;3.50;1.30;;;4.50;99.90;;;;;;5080937;28;20406;-52
2020/12/29 09:25:31;;;;;;;2.60;1.00;;;4.60;99.90;;;;;;5088917;28;20389;-53
2020/12/29 09:28:12;;;;;;;4.45;1.70;;;5.30;99.90;;;;;;5079016;28;20402;-56
2020/12/29 09:30:39;;;;;;;6.47;2.00;;;4.70;99.90;;;;;;5088068;28;20860;-54
2020/12/29 09:33:05;;;;;;;6.00;1.23;;;4.90;99.90;;;;;;5080146;28;20408;-52
2020/12/29 09:35:32;;;;;;;4.45;0.90;;;4.90;99.90;;;;;;5077503;28;20403;-52
2020/12/29 09:37:59;;;;;;;3.70;0.90;;;4.90;99.90;;;;;;5085245;28;20418;-53
2020/12/29 09:40:26;;;;;;;3.25;1.33;;;4.80;99.90;;;;;;5085392;28;20385;-54
2020/12/29 09:42:52;;;;;;;4.90;1.27;;;4.80;99.90;;;;;;5080583;28;20387;-54
2020/12/29 09:45:19;;;;;;;4.57;2.07;;;4.90;99.90;;;;;;5082944;28;20409;-53
2020/12/29 09:47:45;;;;;;;3.10;0.90;;;5.10;99.90;;;;;;5100133;28;20478;-52
2020/12/29 09:50:10;;;;;;;3.97;1.60;;;5.10;99.90;;;;;;5087054;28;20692;-53
2020/12/29 09:52:36;;;;;;;3.63;1.27;;;5.20;99.90;;;;;;5083223;28;20411;-54
2020/12/29 09:55:03;;;;;;;4.10;1.60;;;5.40;99.90;;;;;;5083632;28;20550;-51
2020/12/29 09:57:29;;;;;;;4.43;2.20;;;5.60;99.90;;;;;;5089238;28;20390;-53
2020/12/29 09:59:54;;;;;;;6.30;1.40;;;5.80;99.90;;;;;;5085391;28;20475;-50
2020/12/29 10:02:21;;;;;;;6.82;3.58;;;5.70;99.90;;;;;;5075201;28;20887;-53
2020/12/29 10:04:47;;;;;;;4.93;1.98;;;5.70;99.90;;;;;;5074064;28;20406;-52
2020/12/29 10:07:12;;;;;;;7.00;1.45;;;5.50;99.90;;;;;;5078468;28;20402;-53
2020/12/29 10:09:38;;;;;;;2.43;0.73;;;5.20;99.90;;;;;;5079631;28;20386;-52
2020/12/29 10:12:04;;;;;;;2.20;0.50;;;4.80;99.90;;;;;;5077298;28;20392;-58
2020/12/29 10:14:29;;;;;;;2.97;0.60;;;3.30;99.90;;;;;;5077180;28;20414;-52
2020/12/29 10:16:55;;;;;;;2.40;0.40;;;6.70;99.90;;;;;;5074890;28;20399;-52
2020/12/29 10:19:21;;;;;;;2.30;0.40;;;5.10;99.90;;;;;;5075399;28;20375;-53
2020/12/29 10:21:53;;;;;;;2.30;0.40;;;5.40;99.90;;;;;;5074235;28;20449;-55
2020/12/29 10:24:19;;;;;;;3.30;0.40;;;6.90;99.90;;;;;;5072994;28;20899;-52
2020/12/29 10:26:45;;;;;;;4.20;0.40;;;4.40;99.90;;;;;;5079322;28;20389;-52
2020/12/29 10:29:10;;;;;;;2.33;0.40;;;4.20;99.90;;;;;;5082703;28;20404;-53
2020/12/29 10:31:36;;;;;;;2.50;0.50;;;4.20;99.90;;;;;;5086599;28;20385;-52
2020/12/29 10:34:02;;;;;;;2.40;0.40;;;4.20;99.90;;;;;;5081109;28;20398;-59
2020/12/29 10:36:35;;;;;;;2.50;0.60;;;5.10;99.90;;;;;;5076754;28;20406;-53
2020/12/29 10:39:01;;;;;;;3.58;0.98;;;4.50;99.90;;;;;;5076585;28;20408;-58
2020/12/29 10:41:31;;;;;;;2.30;0.60;;;4.70;99.90;;;;;;5074202;28;20428;-52
2020/12/29 10:43:57;;;;;;;2.67;0.60;;;4.90;99.90;;;;;;5079082;28;20397;-52
2020/12/29 10:46:23;;;;;;;2.47;0.40;;;5.10;99.90;;;;;;5081409;28;20394;-53
2020/12/29 10:48:49;;;;;;;2.45;0.57;;;5.30;99.90;;;;;;5074137;28;20436;-53
2020/12/29 10:51:23;;;;;;;2.40;0.60;;;5.30;99.90;;;;;;5076656;28;20410;-53
2020/12/29 10:53:50;;;;;;;3.58;1.60;;;5.80;99.90;;;;;;5084052;28;20411;-53
2020/12/29 10:56:15;;;;;;;4.13;2.72;;;6.30;99.90;;;;;;5071235;28;20395;-53
2020/12/29 10:58:44;;;;;;;2.40;0.40;;;6.40;99.90;;;;;;5075971;28;20392;-53
2020/12/29 11:01:11;;;;;;;2.28;0.60;;;6.40;99.90;;;;;;5076034;28;20397;-53
2020/12/29 11:03:37;;;;;;;2.50;1.00;;;6.40;99.90;;;;;;5082316;28;20500;-54
2020/12/29 11:06:03;;;;;;;3.60;1.33;;;6.30;99.90;;;;;;5078465;28;20391;-56
2020/12/29 11:08:29;;;;;;;2.75;1.10;;;6.10;99.90;;;;;;5078990;28;20393;-53
2020/12/29 11:10:55;;;;;;;2.63;0.80;;;6.10;99.90;;;;;;5072223;28;20391;-53
2020/12/29 11:13:21;;;;;;;3.58;1.10;;;6.10;99.90;;;;;;5076150;28;20486;-54
2020/12/29 11:15:51;;;;;;;2.45;0.80;;;6.20;99.90;;;;;;5077498;28;21275;-53
2020/12/29 11:18:18;;;;;;;5.25;1.00;;;6.10;99.90;;;;;;5077669;28;20398;-52
2020/12/29 11:20:43;;;;;;;3.65;0.85;;;6.00;99.90;;;;;;5076005;28;20865;-53
2020/12/29 11:23:09;;;;;;;3.00;0.90;;;6.00;99.90;;;;;;5072455;28;20443;-53
2020/12/29 11:25:35;;;;;;;2.78;0.93;;;5.70;99.90;;;;;;5071151;28;20424;-53
2020/12/29 11:28:00;;;;;;;2.30;0.70;;;5.80;99.90;;;;;;5085835;28;20859;-56
2020/12/29 11:30:26;;;;;;;2.90;0.90;;;5.80;99.90;;;;;;5079260;28;20385;-53
2020/12/29 11:32:52;;;;;;;2.80;0.80;;;6.00;99.90;;;;;;5071835;28;20433;-53
2020/12/29 11:35:17;;;;;;;3.00;0.90;;;5.90;99.90;;;;;;5077181;28;20747;-53
2020/12/29 11:37:43;;;;;;;3.92;1.20;;;5.90;99.90;;;;;;5079031;28;20378;-53
2020/12/29 11:40:09;;;;;;;3.00;0.80;;;6.10;99.90;;;;;;5074317;28;20380;-54
2020/12/29 11:42:36;;;;;;;2.70;0.70;;;6.50;99.90;;;;;;5080129;28;20401;-54
2020/12/29 11:45:03;;;;;;;2.40;0.60;;;6.70;99.90;;;;;;5075692;28;20758;-56
2020/12/29 11:47:28;;;;;;;3.60;0.60;;;6.70;99.90;;;;;;5078519;28;20491;-53
2020/12/29 11:49:54;;;;;;;3.20;0.30;;;6.60;99.90;;;;;;5076850;28;20804;-54
2020/12/29 11:52:23;;;;;;;3.70;1.30;;;6.50;99.90;;;;;;5073590;28;21339;-53
2020/12/29 11:54:49;;;;;;;2.72;0.43;;;6.40;99.90;;;;;;5076935;28;20403;-53
2020/12/29 11:57:15;;;;;;;2.50;0.40;;;6.20;99.90;;;;;;5082019;28;20416;-54
2020/12/29 11:59:40;;;;;;;3.60;0.47;;;6.40;99.90;;;;;;5071165;28;20840;-53
2020/12/29 12:02:06;;;;;;;4.10;0.50;;;6.40;99.90;;;;;;5073537;28;20408;-54
2020/12/29 12:04:32;;;;;;;2.60;0.43;;;6.10;99.90;;;;;;5078641;28;20405;-54
2020/12/29 12:06:58;;;;;;;3.97;0.60;;;6.20;99.90;;;;;;5080695;28;20509;-53
2020/12/29 12:09:23;;;;;;;3.00;0.70;;;6.10;99.90;;;;;;5079081;28;20376;-54
2020/12/29 12:11:49;;;;;;;4.80;0.50;;;5.90;99.90;;;;;;5087475;28;20394;-53
2020/12/29 12:14:15;;;;;;;2.60;0.50;;;5.80;99.90;;;;;;5077876;28;20442;-54
2020/12/29 12:16:41;;;;;;;3.40;0.70;;;5.90;99.90;;;;;;5083096;28;20934;-53
2020/12/29 12:19:06;;;;;;;6.60;0.55;;;6.10;99.90;;;;;;5076219;28;20399;-54
2020/12/29 12:21:34;;;;;;;3.00;0.60;;;6.10;99.90;;;;;;5082776;28;20767;-53
2020/12/29 12:24:00;;;;;;;3.88;0.55;;;6.10;99.90;;;;;;5082824;28;20421;-52
2020/12/29 12:26:27;;;;;;;2.70;0.60;;;6.90;99.90;;;;;;5084169;28;21106;-53
2020/12/29 12:28:53;;;;;;;6.55;0.60;;;6.00;99.90;;;;;;5083158;28;20426;-54
2020/12/29 12:31:19;;;;;;;2.67;0.50;;;5.90;99.90;;;;;;5071348;28;20463;-53
2020/12/29 12:33:45;;;;;;;2.50;0.45;;;5.80;99.90;;;;;;5078329;28;21186;-53
2020/12/29 12:36:11;;;;;;;2.97;0.68;;;5.80;99.90;;;;;;5086191;28;20385;-54
2020/12/29 12:38:37;;;;;;;3.00;0.60;;;5.90;99.90;;;;;;5076923;28;20504;-53
2020/12/29 12:41:07;;;;;;;3.05;0.80;;;6.50;99.90;;;;;;5079608;28;20474;-56
2020/12/29 12:43:32;;;;;;;3.10;1.20;;;6.10;99.90;;;;;;5079986;28;20881;-53
2020/12/29 12:45:58;;;;;;;2.80;0.57;;;6.10;99.90;;;;;;5087871;28;20396;-54
2020/12/29 12:48:24;;;;;;;2.60;0.60;;;6.30;99.90;;;;;;5079033;28;20996;-53
2020/12/29 12:50:50;;;;;;;2.80;0.50;;;6.50;99.90;;;;;;5076425;28;20882;-53
2020/12/29 12:53:15;;;;;;;3.17;0.73;;;6.70;99.90;;;;;;5076735;28;20411;-53
2020/12/29 12:55:41;;;;;;;4.53;0.80;;;6.70;99.90;;;;;;5076972;28;20390;-53
2020/12/29 12:58:07;;;;;;;3.30;0.60;;;6.90;99.90;;;;;;5078109;28;20837;-53
2020/12/29 13:00:32;;;;;;;2.70;0.50;;;7.20;99.90;;;;;;5078652;28;20405;-55